Terminal Aerodrome Forecast
Issued by NWS

Home | Current Version | Previous Version | Text Only | Print | Product List | Glossary On
Versions: 1 2 3 4 5 6 7 8 9 10 11 12 13 14 15 16 17 18 19 20 21 22 23 24 25 26 27 28 29 30 31 32 33 34 35 36 37 38 39
000
FTUS43 KGLD 212320
TAFMCK
TAF
KMCK 212320Z 2200/2224 13008KT P6SM BKN050
      TEMPO 2203/2207 BKN025
     FM220700 13008KT 5SM BR VCSH OVC025
     FM220930 13008KT 2SM SHRA BR OVC005
     FM221500 13010G16KT 1 1/2SM BR VCSH OVC003
     FM221900 14012G22KT 2SM -SHRA BR OVC008=

USA.gov is the U.S. government's official web portal to all federal, state and local government web resources and services.